Time;durP1;ratioP1;P1;durP2;ratioP2;P2;SDS_P1;SDS_P2;PMS_P1;PMS_P2;Temp;Humidity;BMP_temperature;BMP_pressure;BME280_temperature;BME280_humidity;BME280_pressure;Samples;Min_cycle;Max_cycle;Signal;HPM_P1;HPM_P2
2021/06/10 20:20:32;;;;;;;1999.90;999.90;;;22.70;99.90;;;;;;6261267;22;884835;-84
2021/06/10 20:22:59;;;;;;;1198.27;921.87;;;22.60;99.90;;;;;;6312104;22;20175;-84
2021/06/10 20:25:25;;;;;;;1999.90;999.90;;;22.50;99.90;;;;;;6312205;22;20442;-84
2021/06/10 20:30:37;;;;;;;1999.90;999.90;;;22.40;99.90;;;;;;6284231;22;20479;-82
2021/06/10 20:33:05;;;;;;;1999.90;999.90;;;22.40;99.90;;;;;;6279877;22;20422;-81
2021/06/10 20:35:33;;;;;;;1999.90;999.90;;;22.30;99.90;;;;;;6277892;22;20429;-80
2021/06/10 20:38:00;;;;;;;1999.90;999.90;;;22.20;99.90;;;;;;6278390;22;20904;-80
2021/06/10 20:40:27;;;;;;;1999.90;999.90;;;22.20;99.90;;;;;;6276582;22;20422;-80
2021/06/10 20:42:55;;;;;;;1999.90;999.90;;;22.10;99.90;;;;;;6276497;22;20548;-80
2021/06/10 20:45:22;;;;;;;1999.90;999.90;;;22.10;99.90;;;;;;6276614;22;20446;-80
2021/06/10 20:47:49;;;;;;;1999.90;999.90;;;22.00;99.90;;;;;;6275278;22;20418;-80
2021/06/10 20:50:15;;;;;;;1999.90;999.90;;;22.00;99.90;;;;;;6277431;22;20427;-80
2021/06/10 20:52:43;;;;;;;1999.90;999.90;;;21.90;99.90;;;;;;6277783;22;20489;-79
2021/06/10 20:55:10;;;;;;;1999.90;999.90;;;21.90;99.90;;;;;;6277456;22;20411;-81
2021/06/10 20:57:36;;;;;;;1999.90;999.90;;;21.80;99.90;;;;;;6276754;22;20417;-80
2021/06/10 21:00:05;;;;;;;1999.90;999.90;;;21.80;99.90;;;;;;6277755;22;20431;-82
2021/06/10 21:02:31;;;;;;;1999.90;999.90;;;21.70;99.90;;;;;;6278021;22;20411;-81
2021/06/10 21:04:57;;;;;;;1999.90;999.90;;;21.70;99.90;;;;;;6277942;22;20450;-80
2021/06/10 21:07:24;;;;;;;1999.90;999.90;;;21.60;99.90;;;;;;6277395;22;21030;-80
2021/06/10 21:09:52;;;;;;;1999.90;999.90;;;21.60;99.90;;;;;;6275598;22;20430;-81
2021/06/10 21:12:19;;;;;;;1999.90;999.90;;;21.50;99.90;;;;;;6277441;22;20439;-81
2021/06/10 21:14:46;;;;;;;1999.90;999.90;;;21.50;99.90;;;;;;6277402;22;20509;-81
2021/06/10 21:17:12;;;;;;;1999.90;999.90;;;21.40;99.90;;;;;;6277367;22;20407;-81
2021/06/10 21:19:39;;;;;;;1999.90;999.90;;;21.40;99.90;;;;;;6277692;22;20834;-81
2021/06/10 21:22:05;;;;;;;1999.90;999.90;;;21.30;99.90;;;;;;6277895;22;20415;-80
2021/06/10 21:24:32;;;;;;;1999.90;999.90;;;21.20;99.90;;;;;;6278120;22;20531;-81
2021/06/10 21:27:00;;;;;;;1999.90;999.90;;;21.20;99.90;;;;;;6278643;22;20429;-81
2021/06/10 21:29:26;;;;;;;1999.90;999.90;;;21.20;99.90;;;;;;6277899;22;20445;-81
2021/06/10 21:31:53;;;;;;;1999.90;999.90;;;21.10;99.90;;;;;;6276508;22;20407;-80
2021/06/10 21:34:20;;;;;;;1999.90;999.90;;;21.10;99.90;;;;;;6279518;22;20793;-82
2021/06/10 21:36:47;;;;;;;1999.90;999.90;;;21.00;99.90;;;;;;6285249;22;20421;-80
2021/06/10 21:39:13;;;;;;;1999.90;999.90;;;21.00;99.90;;;;;;6284602;22;20992;-80
2021/06/10 21:41:40;;;;;;;1999.90;999.90;;;20.90;99.90;;;;;;6282747;22;20414;-79
2021/06/10 21:44:11;;;;;;;1999.90;999.90;;;20.90;99.90;;;;;;6283312;22;20446;-80
2021/06/10 21:46:38;;;;;;;1999.90;999.90;;;20.80;99.90;;;;;;6284413;22;20787;-80
2021/06/10 21:49:05;;;;;;;1999.90;999.90;;;20.80;99.90;;;;;;6282511;22;20446;-79
2021/06/10 21:51:31;;;;;;;1999.90;999.90;;;20.70;99.90;;;;;;6284146;22;20461;-80
2021/06/10 21:53:57;;;;;;;1798.87;999.90;;;20.60;99.90;;;;;;6282069;22;20411;-80
2021/06/10 21:56:24;;;;;;;1742.60;999.90;;;20.60;99.90;;;;;;6283325;22;20434;-80
2021/06/10 21:58:51;;;;;;;1932.00;999.90;;;20.50;99.90;;;;;;6282951;22;20510;-80
2021/06/10 22:01:20;;;;;;;1828.43;999.90;;;20.50;99.90;;;;;;6283607;22;20414;-80
2021/06/10 22:03:46;;;;;;;1727.87;999.90;;;20.50;99.90;;;;;;6282703;22;20415;-80
2021/06/10 22:06:12;;;;;;;1784.67;999.90;;;20.40;99.90;;;;;;6282045;22;20451;-80
2021/06/10 22:08:39;;;;;;;1727.87;999.90;;;20.40;99.90;;;;;;6281548;22;20411;-78
2021/06/10 22:11:06;;;;;;;1593.20;999.90;;;20.40;99.90;;;;;;6282213;22;20689;-78
2021/06/10 22:13:33;;;;;;;1423.27;999.90;;;20.30;99.90;;;;;;6281752;22;20414;-80
2021/06/10 22:15:59;;;;;;;1584.13;999.90;;;20.30;99.90;;;;;;6286273;22;20467;-81
2021/06/10 22:18:27;;;;;;;1620.30;999.90;;;20.20;99.90;;;;;;6289224;22;20748;-80
2021/06/10 22:20:54;;;;;;;1668.87;999.90;;;20.20;99.90;;;;;;6288485;22;20418;-80
2021/06/10 22:23:21;;;;;;;1571.90;999.90;;;20.20;99.90;;;;;;6290383;22;20411;-81
2021/06/10 22:25:48;;;;;;;1773.00;999.90;;;20.10;99.90;;;;;;6289873;22;20501;-81
2021/06/10 22:28:14;;;;;;;1553.77;999.90;;;20.10;99.90;;;;;;6288753;22;20407;-80
2021/06/10 22:30:43;;;;;;;1271.97;999.90;;;20.00;99.90;;;;;;6287212;22;20476;-80
2021/06/10 22:33:14;;;;;;;1204.60;999.90;;;20.00;99.90;;;;;;6287261;22;20437;-80
2021/06/10 22:35:46;;;;;;;1203.07;999.90;;;19.90;99.90;;;;;;6291086;22;20446;-81
2021/06/10 22:38:13;;;;;;;1143.83;999.90;;;19.90;99.90;;;;;;6292606;22;20399;-81
2021/06/10 22:40:46;;;;;;;1138.90;999.90;;;19.80;99.90;;;;;;6292125;22;20446;-80
2021/06/10 22:43:14;;;;;;;1080.17;985.53;;;19.80;99.90;;;;;;6292784;22;20395;-81
2021/06/10 22:45:41;;;;;;;1014.97;936.97;;;19.80;99.90;;;;;;6291971;22;20506;-81
2021/06/10 22:48:08;;;;;;;1009.90;935.30;;;19.70;99.90;;;;;;6291908;22;20441;-80
2021/06/10 22:50:37;;;;;;;1018.40;942.00;;;19.70;99.90;;;;;;6291840;22;20436;-81
2021/06/10 22:53:05;;;;;;;998.83;922.80;;;19.60;99.90;;;;;;6293042;22;20467;-80
2021/06/10 22:55:33;;;;;;;1000.80;922.73;;;19.60;99.90;;;;;;6292894;22;20497;-80
2021/06/10 22:58:00;;;;;;;1042.40;967.13;;;19.50;99.90;;;;;;6294360;22;20411;-81
2021/06/10 23:00:27;;;;;;;1142.17;999.90;;;19.50;99.90;;;;;;6292877;22;20427;-79
2021/06/10 23:02:54;;;;;;;902.30;841.17;;;19.50;99.90;;;;;;6294826;22;20442;-80
2021/06/10 23:05:20;;;;;;;789.70;740.07;;;19.40;99.90;;;;;;6294339;22;20502;-80
2021/06/10 23:07:47;;;;;;;881.20;821.20;;;19.30;99.90;;;;;;6294197;22;20437;-80
2021/06/10 23:10:16;;;;;;;867.37;808.63;;;19.30;99.90;;;;;;6292451;22;20517;-79
2021/06/10 23:12:43;;;;;;;685.23;645.77;;;19.30;99.90;;;;;;6294191;22;20493;-80
2021/06/10 23:15:12;;;;;;;724.90;680.50;;;19.30;99.90;;;;;;6293844;22;20414;-80
2021/06/10 23:17:39;;;;;;;766.07;716.87;;;19.20;99.90;;;;;;6291557;22;20406;-80
2021/06/10 23:20:08;;;;;;;757.20;712.00;;;19.20;99.90;;;;;;6291927;22;20481;-81
2021/06/10 23:22:35;;;;;;;689.50;651.03;;;19.20;99.90;;;;;;6294277;22;20447;-80
2021/06/10 23:25:01;;;;;;;711.97;671.23;;;19.20;99.90;;;;;;6296032;22;20470;-79
2021/06/10 23:27:29;;;;;;;661.10;623.47;;;19.20;99.90;;;;;;6295096;22;20441;-81
2021/06/10 23:29:55;;;;;;;723.73;682.03;;;19.20;99.90;;;;;;6292567;22;20433;-82
2021/06/10 23:32:22;;;;;;;576.70;545.13;;;19.10;99.90;;;;;;6292732;22;20484;-81
2021/06/10 23:34:48;;;;;;;578.47;547.50;;;19.10;99.90;;;;;;6294284;22;20427;-82
2021/06/10 23:37:14;;;;;;;667.07;629.70;;;19.10;99.90;;;;;;6294135;22;20470;-80
2021/06/10 23:39:41;;;;;;;568.43;538.50;;;19.10;99.90;;;;;;6294484;22;20453;-81
2021/06/10 23:42:08;;;;;;;558.43;529.10;;;19.10;99.90;;;;;;6296179;22;20471;-81
2021/06/10 23:44:35;;;;;;;533.60;506.30;;;19.00;99.90;;;;;;6296348;22;20561;-81
2021/06/10 23:47:02;;;;;;;366.10;346.63;;;19.00;99.90;;;;;;6296677;22;20425;-81
2021/06/10 23:49:28;;;;;;;562.17;530.93;;;19.00;99.90;;;;;;6296040;22;20605;-81
2021/06/10 23:51:54;;;;;;;567.73;537.97;;;19.00;99.90;;;;;;6295796;22;20939;-81
2021/06/10 23:54:21;;;;;;;544.40;514.37;;;19.00;99.90;;;;;;6295652;22;20414;-81
2021/06/10 23:56:47;;;;;;;500.33;475.47;;;18.90;99.90;;;;;;6295614;22;20413;-82
2021/06/10 23:59:13;;;;;;;471.50;444.27;;;18.90;99.90;;;;;;6295172;22;20458;-81
